Zanesville, OH

11:28 PM EDT on July 27, 2015 (GMT -0400)
APRSWXNET | | Change Station
CLOSE
Current Station
Personal Weather Station
Location: Zanesville, OH
Elevation: 839 ft
Nearby Weather Stations

Elev 839 ft 39.95 °N, 82.00 °W | Updated 24 minutes ago

Overcast
Overcast
74 °F
Feels Like 73 °F
N
0
Wind Variable Wind from NNE
Gusts 0.0 mph

Today
High -- | Low -- °F
--% Chance of Precip.
Yesterday
High -- | Low -- °F
Precip. -- in
6:21 AM 8:46 PM
Waxing Gibbous, 86% visible
Pressure 30.00 in
Visibility 10.0 miles
Clouds Overcast 7500 ft
Heat Index 73 °F
Dew Point 70 °F
Humidity 86%
Rainfall in
Snow Depth Not available.
UV 0 out of 12
Pollen 6.30 out of 12
Air Quality Not available.
Flu Activity Not available.
METAR KZZV 280253Z AUTO 00000KT 10SM OVC075 24/19 A3002 RMK AO2 SLP157 T02390194 53015

More Conditions Fewer Conditions

Pressure 30.00 in
Visibility 10.0 miles
Clouds Overcast 7500 ft
Heat Index 73 °F
Dew Point 70 °F
Humidity 86%
Rainfall in
Snow Depth Not available.
UV 0 out of 12
Pollen 6.30 out of 12
Air Quality Not available.
Flu Activity Not available.
METAR KZZV 280253Z AUTO 00000KT 10SM OVC075 24/19 A3002 RMK AO2 SLP157 T02390194 53015

More Conditions Fewer Conditions

10-Day Weather Forecast

×

Almanac

Astronomy

Jul. 27, 2015 Rise Set
Actual Time
Civil Twilight
Nautical Twilight
Astronomical Twilight
Moon
Length of Visible Light
Length of Day
Tomorrow will be .
, % of the Moon is Illuminated

Today's Extremes

State Highs State Lows

Community

WunderPhotos

Upload Photos

1,841,785 photos uploaded!

WunderBlogs® & News

Nearby

Air Quality

  Air Quality AQ Index Pollutant
Not available.

Snow Depth

Station Depth Elevation

Earthquake Activity

City Distance Mag. Time & Date
Minimum magnitude displayed is 2.5.

Coastal Water Temperatures

Place Temperature

Stations

Nearby Weather Stations

Station Location Temp. Windchill Dew Point Humidity Wind Precip. Elev Updated Type